Dorothea — WDC4584 — position and weather

sailwx.info

Track history (hours):
 
Tides and Currents Weather Stations Pressure Air Temp Water Temp Dewpoint Dewpoint Depression Visibility Wind Speed Wind Dir Waves Ship Positions

Dorothea

Owner: Dorothea Corp., Seattle, WA. More information available from US FCC via Universal Licensing System and Coast Guard Vessel Documentation Center.

Last reported at 2015-Jun-10 08:33 UTC. Time now 2015-Jul-31 05:01 UTC.
Position N 58°19' W 136°11'.
Warning: this ship's position is 50 days out of date.

Length 26 m.

Type: Fishing. MMSI: 367026930.

Date/timePositionNaut miles runAvg speedWind from/ knotsBaromVisibWave heightAir tempDewpointWater temp
2015-Jun-10 08:33N 58°19' W 136°11'9 9.1
2015-Jun-10 07:33N 58°19' W 135°54'9 8.9
2015-Jun-10 06:33N 58°16' W 135°38'219 5.8
2015-Jun-08 16:33N 55°20' W 131°39'0 0.0
2015-Jun-08 15:33N 55°20' W 131°39'0 0.0
2015-Jun-08 14:33N 55°20' W 131°39'0 0.0
2015-Jun-08 13:33N 55°20' W 131°39'0 0.0
2015-Jun-08 12:33N 55°20' W 131°39'0 0.0
2015-Jun-08 11:33N 55°20' W 131°39'0 0.0
2015-Jun-08 10:33N 55°20' W 131°39'0 0.0
2015-Jun-08 09:33N 55°20' W 131°39'0 0.0
2015-Jun-08 08:33N 55°20' W 131°39'0 0.0
2015-Jun-08 07:33N 55°20' W 131°39'0 0.0
2015-Jun-08 06:33N 55°20' W 131°39'0 0.0
2015-Jun-08 05:33N 55°20' W 131°39'5 5.1
2015-Jun-08 04:33N 55°17' W 131°32'8 7.8
2015-Jun-08 03:32N 55°13' W 131°20'252 6.8
2015-Jun-06 14:33N 51°33' W 127°52'7 6.8
2015-Jun-06 13:32N 51°26' W 127°51'9 6.6
2015-Jun-06 12:11N 51°17' W 127°52'5 7.1
2015-Jun-06 11:27N 51°12' W 127°53'6 6.8
2015-Jun-06 10:33N 51°06' W 127°52'7 7.1
2015-Jun-06 09:33N 50°59' W 127°48'7 7.4
2015-Jun-06 08:33N 50°54' W 127°39'7 7.2
2015-Jun-06 07:33N 50°51' W 127°30'8 7.6
2015-Jun-06 06:33N 50°45' W 127°21'8 7.6
2015-Jun-06 05:28N 50°39' W 127°12'9 8.0
2015-Jun-06 04:22N 50°36' W 126°59'7 7.9
2015-Jun-06 03:33N 50°34' W 126°50'8 7.6
2015-Jun-06 02:31N 50°31' W 126°38'8 7.9
2015-Jun-06 01:33N 50°30' W 126°26'86 7.1
2015-Jun-05 13:23N 49°38' W 124°39'6 7.0
2015-Jun-05 12:33N 49°34' W 124°33'8 7.3
2015-Jun-05 11:31N 49°27' W 124°26'7 7.5
2015-Jun-05 10:33N 49°24' W 124°16'9 8.4
2015-Jun-05 09:26N 49°21' W 124°03'8 8.4
2015-Jun-05 08:32N 49°18' W 123°52'7 7.5
2015-Jun-05 07:33N 49°14' W 123°42'8 7.5
2015-Jun-05 06:33N 49°10' W 123°33'8 8.0
2015-Jun-05 05:33N 49°05' W 123°23'7 7.3
2015-Jun-05 04:33N 49°01' W 123°14'8 7.8
2015-Jun-05 03:33N 48°55' W 123°06'9 8.9
2015-Jun-05 02:33N 48°49' W 122°55'9 9.1
2015-Jun-05 01:33N 48°44' W 122°45'1110.6
2015-Jun-05 00:33N 48°33' W 122°45'1010.2
2015-Jun-04 23:33N 48°23' W 122°44'25 6.2
2015-Jun-04 19:33N 47°59' W 122°35'4 8.7
2015-Jun-04 19:07N 47°56' W 122°30'5 8.4
2015-Jun-04 18:33N 47°52' W 122°28'0 8.0
2015-Jun-04 18:32N 47°52' W 122°28'8 8.3
2015-Jun-04 17:33N 47°44' W 122°25'0 8.1
2015-Jun-04 17:31N 47°43' W 122°25'4 3.9
2015-Jun-04 16:33N 47°40' W 122°23'0 2.2
2015-Jun-04 16:30N 47°40' W 122°23'0 0.5
2015-Jun-04 15:33N 47°40' W 122°23'0 0.1
2015-Jun-04 15:30N 47°40' W 122°23'0 0.0
2015-Jun-04 14:33N 47°40' W 122°23'0 0.0
2015-Jun-04 14:29N 47°40' W 122°23'0 0.0
2015-Jun-04 13:34N 47°40' W 122°23'0 0.5
2015-Jun-04 13:33N 47°40' W 122°23'0 0.0
2015-Jun-04 12:34N 47°40' W 122°23'0 0.0
2015-Jun-04 12:33N 47°40' W 122°23'0 0.0
2015-Jun-04 11:33N 47°40' W 122°23'0 0.0
2015-Jun-04 11:33N 47°40' W 122°23'0 0.0
2015-Jun-04 10:33N 47°40' W 122°23'0 0.0
2015-Jun-04 10:27N 47°40' W 122°23'0 0.0
2015-Jun-04 09:33N 47°40' W 122°23'0 0.6
2015-Jun-04 09:32N 47°40' W 122°23'0 0.0
2015-Jun-04 08:33N 47°40' W 122°23'0 0.0
2015-Jun-04 08:31N 47°40' W 122°23'0 0.0
2015-Jun-04 07:33N 47°40' W 122°23'0 0.1
2015-Jun-04 07:31N 47°40' W 122°23'0 0.0
2015-Jun-04 06:33N 47°40' W 122°23'0 0.1
2015-Jun-04 06:31N 47°40' W 122°23'0 0.0
2015-Jun-04 05:55N 47°40' W 122°23'0 0.1
2015-Jun-04 05:33N 47°40' W 122°23'0 0.0
2015-Jun-04 04:32N 47°40' W 122°23'0 0.2
2015-Jun-04 04:30N 47°40' W 122°23'0 0.0
2015-Jun-04 03:24N 47°40' W 122°23'0 0.0
2015-Jun-04 03:24N 47°40' W 122°23'0 0.0
2015-Jun-04 02:33N 47°40' W 122°23'0 0.0
2015-Jun-04 02:33N 47°40' W 122°23'0 0.0
2015-Jun-04 01:33N 47°40' W 122°23'0 0.0
2015-Jun-04 01:32N 47°40' W 122°23'0 0.0
2015-Jun-04 00:33N 47°40' W 122°23'0 0.0
2015-Jun-04 00:31N 47°40' W 122°23'0 0.0
2015-Jun-03 23:33N 47°40' W 122°23'0 0.1
2015-Jun-03 23:31N 47°40' W 122°23'0 0.0
2015-Jun-03 22:33N 47°40' W 122°23'0 0.0
2015-Jun-03 22:31N 47°40' W 122°23'0 0.0
2015-Jun-03 21:33N 47°40' W 122°23'0 0.1
2015-Jun-03 21:26N 47°40' W 122°23'0 0.0
2015-Jun-03 20:33N 47°40' W 122°23'0 0.1
2015-Jun-03 20:31N 47°40' W 122°23'0 0.3
2015-Jun-03 19:33N 47°40' W 122°23'0 3.1
2015-Jun-03 19:29N 47°40' W 122°23'1 0.6
2015-Jun-03 18:33N 47°40' W 122°23'0 0.0
2015-Jun-03 18:29N 47°40' W 122°23'0 0.0
2015-Jun-03 17:33N 47°40' W 122°23'0 0.0
2015-Jun-03 17:33N 47°40' W 122°23'0 0.0
2015-Jun-03 16:33N 47°40' W 122°23'0 0.5
2015-Jun-03 16:33N 47°40' W 122°23'0 0.0
2015-Jun-03 15:33N 47°40' W 122°23'0 0.0
2015-Jun-03 15:32N 47°40' W 122°23'0 0.0
2015-Jun-03 14:30N 47°40' W 122°23'0 0.0
2015-Jun-03 14:27N 47°40' W 122°23'0 0.0
2015-Jun-03 13:33N 47°40' W 122°23'0 0.0
2015-Jun-03 13:31N 47°40' W 122°23'0 0.0
2015-Jun-03 12:33N 47°40' W 122°23'0 0.1
2015-Jun-03 12:31N 47°40' W 122°23'0 0.0
2015-Jun-03 11:33N 47°40' W 122°23'0 0.0
2015-Jun-03 11:30N 47°40' W 122°23'0 0.0
2015-Jun-03 10:33N 47°40' W 122°23'0 0.0
2015-Jun-03 10:30N 47°40' W 122°23'0 0.0
2015-Jun-03 09:33N 47°40' W 122°23'0 0.1
2015-Jun-03 09:29N 47°40' W 122°23'0 0.0
2015-Jun-03 08:33N 47°40' W 122°23'0 0.0
2015-Jun-03 08:33N 47°40' W 122°23'0 0.0
2015-Jun-03 07:28N 47°40' W 122°23'0 0.0
2015-Jun-03 07:22N 47°40' W 122°23'0 0.0
2015-Jun-03 06:33N 47°40' W 122°23'0 0.2
2015-Jun-03 06:31N 47°40' W 122°23'0 0.0
2015-Jun-03 06:11N 47°40' W 122°23'0 0.0
2015-Jun-03 05:31N 47°40' W 122°23'0 0.0
2015-Jun-03 04:32N 47°40' W 122°23'0 0.0
2015-Jun-03 03:52N 47°40' W 122°23'0 0.0
2015-Jun-03 03:33N 47°40' W 122°23'0 0.3
2015-Jun-03 03:32N 47°40' W 122°23'0 0.0
2015-Jun-03 02:33N 47°40' W 122°23'0 0.2
2015-Jun-03 02:32N 47°40' W 122°23'0 0.0
2015-Jun-03 01:34N 47°40' W 122°23'0 0.1
2015-Jun-03 01:31N 47°40' W 122°23'0 0.0
2015-Jun-03 00:33N 47°40' W 122°23'0 0.0
2015-Jun-03 00:20N 47°40' W 122°23'0 0.0
2015-Jun-02 23:33N 47°40' W 122°23'0 0.0
2015-Jun-02 23:30N 47°40' W 122°23'0 0.0
2015-Jun-02 22:33N 47°40' W 122°23'0 0.1
2015-Jun-02 22:29N 47°40' W 122°23'0 0.1
2015-Jun-02 21:33N 47°40' W 122°23'0 0.0
2015-Jun-02 21:33N 47°40' W 122°23'0 0.1
2015-Jun-02 20:33N 47°40' W 122°23'0 0.0
2015-Jun-02 20:33N 47°40' W 122°23'0 0.0
2015-Jun-02 19:33N 47°40' W 122°23'0 0.0
2015-Jun-02 19:32N 47°40' W 122°23'0 0.0
2015-Jun-02 18:33N 47°40' W 122°23'0 0.0
2015-Jun-02 18:32N 47°40' W 122°23'0 0.0
2015-Jun-02 17:33N 47°40' W 122°23'0 0.0
2015-Jun-02 17:32N 47°40' W 122°23'0 0.0
2015-Jun-02 16:33N 47°40' W 122°23'0 0.1
2015-Jun-02 16:31N 47°40' W 122°23'0 0.0
2015-Jun-02 15:33N 47°40' W 122°23'0 0.1
2015-Jun-02 15:31N 47°40' W 122°23'0 0.0
2015-Jun-02 14:32N 47°40' W 122°23'0 0.0
2015-Jun-02 14:31N 47°40' W 122°23'0 0.0
2015-Jun-02 13:33N 47°40' W 122°23'0 0.0
2015-Jun-02 13:30N 47°40' W 122°23'0 0.0
2015-Jun-02 12:10N 47°40' W 122°23'0 0.0
2015-Jun-02 12:09N 47°40' W 122°23'0 0.0
2015-Jun-02 11:33N 47°40' W 122°23'0 0.0
2015-Jun-02 11:29N 47°40' W 122°23'0 0.0
2015-Jun-02 10:33N 47°40' W 122°23'0 0.0
2015-Jun-02 10:33N 47°40' W 122°23'0 0.0
2015-Jun-02 09:33N 47°40' W 122°23'0 0.0
2015-Jun-02 09:33N 47°40' W 122°23'0 0.0
2015-Jun-02 08:33N 47°40' W 122°23'0 0.0
2015-Jun-02 08:33N 47°40' W 122°23'0 0.0
2015-Jun-02 07:33N 47°40' W 122°23'0 0.0
2015-Jun-02 07:32N 47°40' W 122°23'0 0.0
2015-Jun-02 06:33N 47°40' W 122°23'0 0.4
2015-Jun-02 06:32N 47°40' W 122°23'0 0.0
2015-Jun-02 06:07N 47°40' W 122°23'0 0.0
2015-Jun-02 05:33N 47°40' W 122°23'0 0.0
2015-Jun-02 04:33N 47°40' W 122°23'0 0.3
2015-Jun-02 04:32N 47°40' W 122°23'0 0.0
2015-Jun-02 03:31N 47°40' W 122°23'0 0.0
2015-Jun-02 03:26N 47°40' W 122°23'0 0.0
2015-Jun-02 02:33N 47°40' W 122°23'0 0.0
2015-Jun-02 02:31N 47°40' W 122°23'0 0.0
2015-Jun-02 00:28N 47°40' W 122°23'0 0.0
2015-Jun-02 00:24N 47°40' W 122°23'0 0.0
2015-Jun-01 23:33N 47°40' W 122°23'0 0.1
2015-Jun-01 23:29N 47°40' W 122°23'0 0.0
2015-Jun-01 22:33N 47°40' W 122°23'0 0.0
2015-Jun-01 22:28N 47°40' W 122°23'0 0.0
2015-Jun-01 21:33N 47°40' W 122°23'0 0.1
2015-Jun-01 21:28N 47°40' W 122°23'0 0.0
2015-Jun-01 20:33N 47°40' W 122°23'0 0.0
2015-Jun-01 20:33N 47°40' W 122°23'0 0.0
2015-Jun-01 19:33N 47°40' W 122°23'0 0.0
2015-Jun-01 19:33N 47°40' W 122°23'0 0.0
2015-Jun-01 17:23N 47°40' W 122°23'  
Track history (hours):
 
Tides and Currents Weather Stations Pressure Air Temp Water Temp Dewpoint Dewpoint Depression Visibility Wind Speed Wind Dir Waves Ship Positions

Dorothea

Owner: Dorothea Corp., Seattle, WA. More information available from US FCC via Universal Licensing System and Coast Guard Vessel Documentation Center.

Last reported at 2015-Jun-10 08:33 UTC. Time now 2015-Jul-31 05:01 UTC.
Position N 58°19' W 136°11'.
Warning: this ship's position is 50 days out of date.

Length 26 m.

Type: Fishing. MMSI: 367026930.

Date/timePositionNaut miles runAvg speedWind from/ knotsBaromVisibWave heightAir tempDewpointWater temp
2015-Jun-10 08:33N 58°19' W 136°11'9 9.1
2015-Jun-10 07:33N 58°19' W 135°54'9 8.9
2015-Jun-10 06:33N 58°16' W 135°38'219 5.8
2015-Jun-08 16:33N 55°20' W 131°39'0 0.0
2015-Jun-08 15:33N 55°20' W 131°39'0 0.0
2015-Jun-08 14:33N 55°20' W 131°39'0 0.0
2015-Jun-08 13:33N 55°20' W 131°39'0 0.0
2015-Jun-08 12:33N 55°20' W 131°39'0 0.0
2015-Jun-08 11:33N 55°20' W 131°39'0 0.0
2015-Jun-08 10:33N 55°20' W 131°39'0 0.0
2015-Jun-08 09:33N 55°20' W 131°39'0 0.0
2015-Jun-08 08:33N 55°20' W 131°39'0 0.0
2015-Jun-08 07:33N 55°20' W 131°39'0 0.0
2015-Jun-08 06:33N 55°20' W 131°39'0 0.0
2015-Jun-08 05:33N 55°20' W 131°39'5 5.1
2015-Jun-08 04:33N 55°17' W 131°32'8 7.8
2015-Jun-08 03:32N 55°13' W 131°20'252 6.8
2015-Jun-06 14:33N 51°33' W 127°52'7 6.8
2015-Jun-06 13:32N 51°26' W 127°51'9 6.6
2015-Jun-06 12:11N 51°17' W 127°52'5 7.1
2015-Jun-06 11:27N 51°12' W 127°53'6 6.8
2015-Jun-06 10:33N 51°06' W 127°52'7 7.1
2015-Jun-06 09:33N 50°59' W 127°48'7 7.4
2015-Jun-06 08:33N 50°54' W 127°39'7 7.2
2015-Jun-06 07:33N 50°51' W 127°30'8 7.6
2015-Jun-06 06:33N 50°45' W 127°21'8 7.6
2015-Jun-06 05:28N 50°39' W 127°12'9 8.0
2015-Jun-06 04:22N 50°36' W 126°59'7 7.9
2015-Jun-06 03:33N 50°34' W 126°50'8 7.6
2015-Jun-06 02:31N 50°31' W 126°38'8 7.9
2015-Jun-06 01:33N 50°30' W 126°26'86 7.1
2015-Jun-05 13:23N 49°38' W 124°39'6 7.0
2015-Jun-05 12:33N 49°34' W 124°33'8 7.3
2015-Jun-05 11:31N 49°27' W 124°26'7 7.5
2015-Jun-05 10:33N 49°24' W 124°16'9 8.4
2015-Jun-05 09:26N 49°21' W 124°03'8 8.4
2015-Jun-05 08:32N 49°18' W 123°52'7 7.5
2015-Jun-05 07:33N 49°14' W 123°42'8 7.5
2015-Jun-05 06:33N 49°10' W 123°33'8 8.0
2015-Jun-05 05:33N 49°05' W 123°23'7 7.3
2015-Jun-05 04:33N 49°01' W 123°14'8 7.8
2015-Jun-05 03:33N 48°55' W 123°06'9 8.9
2015-Jun-05 02:33N 48°49' W 122°55'9 9.1
2015-Jun-05 01:33N 48°44' W 122°45'1110.6
2015-Jun-05 00:33N 48°33' W 122°45'1010.2
2015-Jun-04 23:33N 48°23' W 122°44'25 6.2
2015-Jun-04 19:33N 47°59' W 122°35'4 8.7
2015-Jun-04 19:07N 47°56' W 122°30'5 8.4
2015-Jun-04 18:33N 47°52' W 122°28'0 8.0
2015-Jun-04 18:32N 47°52' W 122°28'8 8.3
2015-Jun-04 17:33N 47°44' W 122°25'0 8.1
2015-Jun-04 17:31N 47°43' W 122°25'4 3.9
2015-Jun-04 16:33N 47°40' W 122°23'0 2.2
2015-Jun-04 16:30N 47°40' W 122°23'0 0.5
2015-Jun-04 15:33N 47°40' W 122°23'0 0.1
2015-Jun-04 15:30N 47°40' W 122°23'0 0.0
2015-Jun-04 14:33N 47°40' W 122°23'0 0.0
2015-Jun-04 14:29N 47°40' W 122°23'0 0.0
2015-Jun-04 13:34N 47°40' W 122°23'0 0.5
2015-Jun-04 13:33N 47°40' W 122°23'0 0.0
2015-Jun-04 12:34N 47°40' W 122°23'0 0.0
2015-Jun-04 12:33N 47°40' W 122°23'0 0.0
2015-Jun-04 11:33N 47°40' W 122°23'0 0.0
2015-Jun-04 11:33N 47°40' W 122°23'0 0.0
2015-Jun-04 10:33N 47°40' W 122°23'0 0.0
2015-Jun-04 10:27N 47°40' W 122°23'0 0.0
2015-Jun-04 09:33N 47°40' W 122°23'0 0.6
2015-Jun-04 09:32N 47°40' W 122°23'0 0.0
2015-Jun-04 08:33N 47°40' W 122°23'0 0.0
2015-Jun-04 08:31N 47°40' W 122°23'0 0.0
2015-Jun-04 07:33N 47°40' W 122°23'0 0.1
2015-Jun-04 07:31N 47°40' W 122°23'0 0.0
2015-Jun-04 06:33N 47°40' W 122°23'0 0.1
2015-Jun-04 06:31N 47°40' W 122°23'0 0.0
2015-Jun-04 05:55N 47°40' W 122°23'0 0.1
2015-Jun-04 05:33N 47°40' W 122°23'0 0.0
2015-Jun-04 04:32N 47°40' W 122°23'0 0.2
2015-Jun-04 04:30N 47°40' W 122°23'0 0.0
2015-Jun-04 03:24N 47°40' W 122°23'0 0.0
2015-Jun-04 03:24N 47°40' W 122°23'0 0.0
2015-Jun-04 02:33N 47°40' W 122°23'0 0.0
2015-Jun-04 02:33N 47°40' W 122°23'0 0.0
2015-Jun-04 01:33N 47°40' W 122°23'0 0.0
2015-Jun-04 01:32N 47°40' W 122°23'0 0.0
2015-Jun-04 00:33N 47°40' W 122°23'0 0.0
2015-Jun-04 00:31N 47°40' W 122°23'0 0.0
2015-Jun-03 23:33N 47°40' W 122°23'0 0.1
2015-Jun-03 23:31N 47°40' W 122°23'0 0.0
2015-Jun-03 22:33N 47°40' W 122°23'0 0.0
2015-Jun-03 22:31N 47°40' W 122°23'0 0.0
2015-Jun-03 21:33N 47°40' W 122°23'0 0.1
2015-Jun-03 21:26N 47°40' W 122°23'0 0.0
2015-Jun-03 20:33N 47°40' W 122°23'0 0.1
2015-Jun-03 20:31N 47°40' W 122°23'0 0.3
2015-Jun-03 19:33N 47°40' W 122°23'0 3.1
2015-Jun-03 19:29N 47°40' W 122°23'1 0.6
2015-Jun-03 18:33N 47°40' W 122°23'0 0.0
2015-Jun-03 18:29N 47°40' W 122°23'0 0.0
2015-Jun-03 17:33N 47°40' W 122°23'0 0.0
2015-Jun-03 17:33N 47°40' W 122°23'0 0.0
2015-Jun-03 16:33N 47°40' W 122°23'0 0.5
2015-Jun-03 16:33N 47°40' W 122°23'0 0.0
2015-Jun-03 15:33N 47°40' W 122°23'0 0.0
2015-Jun-03 15:32N 47°40' W 122°23'0 0.0
2015-Jun-03 14:30N 47°40' W 122°23'0 0.0
2015-Jun-03 14:27N 47°40' W 122°23'0 0.0
2015-Jun-03 13:33N 47°40' W 122°23'0 0.0
2015-Jun-03 13:31N 47°40' W 122°23'0 0.0
2015-Jun-03 12:33N 47°40' W 122°23'0 0.1
2015-Jun-03 12:31N 47°40' W 122°23'0 0.0
2015-Jun-03 11:33N 47°40' W 122°23'0 0.0
2015-Jun-03 11:30N 47°40' W 122°23'0 0.0
2015-Jun-03 10:33N 47°40' W 122°23'0 0.0
2015-Jun-03 10:30N 47°40' W 122°23'0 0.0
2015-Jun-03 09:33N 47°40' W 122°23'0 0.1
2015-Jun-03 09:29N 47°40' W 122°23'0 0.0
2015-Jun-03 08:33N 47°40' W 122°23'0 0.0
2015-Jun-03 08:33N 47°40' W 122°23'0 0.0
2015-Jun-03 07:28N 47°40' W 122°23'0 0.0
2015-Jun-03 07:22N 47°40' W 122°23'0 0.0
2015-Jun-03 06:33N 47°40' W 122°23'0 0.2
2015-Jun-03 06:31N 47°40' W 122°23'0 0.0
2015-Jun-03 06:11N 47°40' W 122°23'0 0.0
2015-Jun-03 05:31N 47°40' W 122°23'0 0.0
2015-Jun-03 04:32N 47°40' W 122°23'0 0.0
2015-Jun-03 03:52N 47°40' W 122°23'0 0.0
2015-Jun-03 03:33N 47°40' W 122°23'0 0.3
2015-Jun-03 03:32N 47°40' W 122°23'0 0.0
2015-Jun-03 02:33N 47°40' W 122°23'0 0.2
2015-Jun-03 02:32N 47°40' W 122°23'0 0.0
2015-Jun-03 01:34N 47°40' W 122°23'0 0.1
2015-Jun-03 01:31N 47°40' W 122°23'0 0.0
2015-Jun-03 00:33N 47°40' W 122°23'0 0.0
2015-Jun-03 00:20N 47°40' W 122°23'0 0.0
2015-Jun-02 23:33N 47°40' W 122°23'0 0.0
2015-Jun-02 23:30N 47°40' W 122°23'0 0.0
2015-Jun-02 22:33N 47°40' W 122°23'0 0.1
2015-Jun-02 22:29N 47°40' W 122°23'0 0.1
2015-Jun-02 21:33N 47°40' W 122°23'0 0.0
2015-Jun-02 21:33N 47°40' W 122°23'0 0.1
2015-Jun-02 20:33N 47°40' W 122°23'0 0.0
2015-Jun-02 20:33N 47°40' W 122°23'0 0.0
2015-Jun-02 19:33N 47°40' W 122°23'0 0.0
2015-Jun-02 19:32N 47°40' W 122°23'0 0.0
2015-Jun-02 18:33N 47°40' W 122°23'0 0.0
2015-Jun-02 18:32N 47°40' W 122°23'0 0.0
2015-Jun-02 17:33N 47°40' W 122°23'0 0.0
2015-Jun-02 17:32N 47°40' W 122°23'0 0.0
2015-Jun-02 16:33N 47°40' W 122°23'0 0.1
2015-Jun-02 16:31N 47°40' W 122°23'0 0.0
2015-Jun-02 15:33N 47°40' W 122°23'0 0.1
2015-Jun-02 15:31N 47°40' W 122°23'0 0.0
2015-Jun-02 14:32N 47°40' W 122°23'0 0.0
2015-Jun-02 14:31N 47°40' W 122°23'0 0.0
2015-Jun-02 13:33N 47°40' W 122°23'0 0.0
2015-Jun-02 13:30N 47°40' W 122°23'0 0.0
2015-Jun-02 12:10N 47°40' W 122°23'0 0.0
2015-Jun-02 12:09N 47°40' W 122°23'0 0.0
2015-Jun-02 11:33N 47°40' W 122°23'0 0.0
2015-Jun-02 11:29N 47°40' W 122°23'0 0.0
2015-Jun-02 10:33N 47°40' W 122°23'0 0.0
2015-Jun-02 10:33N 47°40' W 122°23'0 0.0
2015-Jun-02 09:33N 47°40' W 122°23'0 0.0
2015-Jun-02 09:33N 47°40' W 122°23'0 0.0
2015-Jun-02 08:33N 47°40' W 122°23'0 0.0
2015-Jun-02 08:33N 47°40' W 122°23'0 0.0
2015-Jun-02 07:33N 47°40' W 122°23'0 0.0
2015-Jun-02 07:32N 47°40' W 122°23'0 0.0
2015-Jun-02 06:33N 47°40' W 122°23'0 0.4
2015-Jun-02 06:32N 47°40' W 122°23'0 0.0
2015-Jun-02 06:07N 47°40' W 122°23'0 0.0
2015-Jun-02 05:33N 47°40' W 122°23'0 0.0
2015-Jun-02 04:33N 47°40' W 122°23'0 0.3
2015-Jun-02 04:32N 47°40' W 122°23'0 0.0
2015-Jun-02 03:31N 47°40' W 122°23'0 0.0
2015-Jun-02 03:26N 47°40' W 122°23'0 0.0
2015-Jun-02 02:33N 47°40' W 122°23'0 0.0
2015-Jun-02 02:31N 47°40' W 122°23'0 0.0
2015-Jun-02 00:28N 47°40' W 122°23'0 0.0
2015-Jun-02 00:24N 47°40' W 122°23'0 0.0
2015-Jun-01 23:33N 47°40' W 122°23'0 0.1
2015-Jun-01 23:29N 47°40' W 122°23'0 0.0
2015-Jun-01 22:33N 47°40' W 122°23'0 0.0
2015-Jun-01 22:28N 47°40' W 122°23'0 0.0
2015-Jun-01 21:33N 47°40' W 122°23'0 0.1
2015-Jun-01 21:28N 47°40' W 122°23'0 0.0
2015-Jun-01 20:33N 47°40' W 122°23'0 0.0
2015-Jun-01 20:33N 47°40' W 122°23'0 0.0
2015-Jun-01 19:33N 47°40' W 122°23'0 0.0
2015-Jun-01 19:33N 47°40' W 122°23'0 0.0
2015-Jun-01 17:23N 47°40' W 122°23'  

Dump ship's entire track history